Time,TemperatureF,DewpointF,PressureIn,WindDirection,WindDirectionDegrees,WindSpeedMPH,WindSpeedGustMPH,Humidity,HourlyPrecipIn,Conditions,Clouds,dailyrainin,SoftwareType,DateUTC
2013-04-21 00:01:00,63.9,57.6,30.05,ESE,117,5.8,5.8,80,0.00,CLR,,0.00,WeatherDisplay:10.37,2013-04-21 05:01:00,
2013-04-21 00:06:00,63.8,57.5,30.04,ESE,121,6.9,6.9,80,0.00,CLR,,0.00,WeatherDisplay:10.37,2013-04-21 05:06:00,
2013-04-21 00:11:00,63.9,57.6,30.05,ESE,116,6.9,6.9,80,0.00,CLR,,0.00,WeatherDisplay:10.37,2013-04-21 05:11:00,
2013-04-21 00:16:00,64.0,57.7,30.05,ESE,106,6.9,6.9,80,0.00,CLR,,0.00,WeatherDisplay:10.37,2013-04-21 05:16:00,
2013-04-21 00:21:00,64.1,57.8,30.06,East,96,6.9,6.9,80,0.00,CLR,,0.00,WeatherDisplay:10.37,2013-04-21 05:21:00,
2013-04-21 00:26:00,64.1,57.8,30.05,SE,130,5.8,5.8,80,0.00,CLR,,0.00,WeatherDisplay:10.37,2013-04-21 05:26:00,
2013-04-21 00:31:00,64.0,58.1,30.05,ESE,104,5.8,5.8,81,0.00,CLR,,0.00,WeatherDisplay:10.37,2013-04-21 05:31:00,
2013-04-21 00:36:00,64.0,58.1,30.06,ESE,103,5.8,5.8,81,0.00,CLR,,0.00,WeatherDisplay:10.37,2013-04-21 05:36:00,
2013-04-21 00:41:00,64.0,58.1,30.05,SE,134,5.8,5.8,81,0.00,CLR,,0.00,WeatherDisplay:10.37,2013-04-21 05:41:00,
2013-04-21 00:46:00,64.0,58.1,30.05,ESE,102,5.8,5.8,81,0.00,CLR,,0.00,WeatherDisplay:10.37,2013-04-21 05:46:00,
2013-04-21 00:51:00,64.0,58.1,30.05,East,89,5.8,5.8,81,0.00,CLR,,0.00,WeatherDisplay:10.37,2013-04-21 05:51:00,
2013-04-21 00:56:00,64.0,58.4,30.05,East,100,4.6,4.6,82,0.00,CLR,,0.00,WeatherDisplay:10.37,2013-04-21 05:56:00,
2013-04-21 01:01:00,64.0,58.4,30.05,ESE,123,6.9,6.9,82,0.00,CLR,,0.00,WeatherDisplay:10.37,2013-04-21 06:01:00,
2013-04-21 01:06:00,64.1,58.5,30.05,ESE,120,5.8,5.8,82,0.00,CLR,,0.00,WeatherDisplay:10.37,2013-04-21 06:06:00,
2013-04-21 01:11:00,64.2,58.6,30.05,SE,128,5.3,5.3,82,0.00,CLR,,0.00,WeatherDisplay:10.37,2013-04-21 06:11:00,
2013-04-21 01:16:00,64.2,58.6,30.05,ESE,108,5.8,5.8,82,0.00,CLR,,0.00,WeatherDisplay:10.37,2013-04-21 06:16:00,
2013-04-21 01:21:00,64.2,58.6,30.05,SE,131,3.5,3.5,82,0.00,CLR,,0.00,WeatherDisplay:10.37,2013-04-21 06:21:00,
2013-04-21 01:26:00,64.2,58.6,30.05,ESE,104,5.8,5.8,82,0.00,CLR,,0.00,WeatherDisplay:10.37,2013-04-21 06:26:00,
2013-04-21 01:31:00,64.0,58.1,30.05,East,101,4.6,4.6,81,0.00,CLR,,0.00,WeatherDisplay:10.37,2013-04-21 06:31:00,
2013-04-21 01:36:00,64.0,58.1,30.05,East,91,4.6,4.6,81,0.00,CLR,,0.00,WeatherDisplay:10.37,2013-04-21 06:36:00,
2013-04-21 01:41:00,64.0,57.7,30.04,ESE,123,5.8,5.8,80,0.00,CLR,,0.00,WeatherDisplay:10.37,2013-04-21 06:41:00,
2013-04-21 01:46:00,64.0,57.7,30.03,SE,133,4.6,4.6,80,0.00,CLR,,0.00,WeatherDisplay:10.37,2013-04-21 06:46:00,
2013-04-21 01:51:00,64.0,57.7,30.03,ESE,105,6.9,6.9,80,0.00,CLR,,0.00,WeatherDisplay:10.37,2013-04-21 06:51:00,
2013-04-21 01:56:00,64.0,57.7,30.03,SE,127,5.8,5.8,80,0.00,CLR,,0.00,WeatherDisplay:10.37,2013-04-21 06:56:00,
2013-04-21 02:01:00,64.2,57.9,30.03,SE,131,5.8,5.8,80,0.00,CLR,,0.00,WeatherDisplay:10.37,2013-04-21 07:01:00,
2013-04-21 02:06:00,64.2,57.9,30.02,ESE,108,8.1,8.1,80,0.00,CLR,,0.00,WeatherDisplay:10.37,2013-04-21 07:06:00,
2013-04-21 02:11:00,64.1,57.8,30.02,SE,124,5.8,5.8,80,0.00,CLR,,0.00,WeatherDisplay:10.37,2013-04-21 07:11:00,
2013-04-21 02:16:00,64.1,57.5,30.02,SSE,166,9.2,9.2,79,0.00,CLR,,0.00,WeatherDisplay:10.37,2013-04-21 07:16:00,
2013-04-21 02:21:00,64.3,57.6,30.02,East,83,5.8,5.8,79,0.00,CLR,,0.00,WeatherDisplay:10.37,2013-04-21 07:21:00,
2013-04-21 02:26:00,64.2,57.2,30.02,ESE,111,5.8,5.8,78,0.00,CLR,,0.00,WeatherDisplay:10.37,2013-04-21 07:26:00,
2013-04-21 02:31:00,64.2,57.5,30.01,ESE,105,5.8,5.8,79,0.00,CLR,,0.00,WeatherDisplay:10.37,2013-04-21 07:31:00,
2013-04-21 02:36:00,64.2,57.5,30.01,ESE,113,6.9,6.9,79,0.00,CLR,,0.00,WeatherDisplay:10.37,2013-04-21 07:36:00,
2013-04-21 02:41:00,64.1,57.5,30.01,SE,145,5.8,5.8,79,0.00,CLR,,0.00,WeatherDisplay:10.37,2013-04-21 07:41:00,
2013-04-21 02:46:00,64.1,57.1,30.01,SE,141,10.4,10.4,78,0.00,CLR,,0.00,WeatherDisplay:10.37,2013-04-21 07:46:00,
2013-04-21 02:51:00,64.1,57.5,30.01,SE,124,4.6,4.6,79,0.00,CLR,,0.00,WeatherDisplay:10.37,2013-04-21 07:51:00,
2013-04-21 02:56:00,64.0,57.4,30.01,East,94,5.8,5.8,79,0.00,CLR,,0.00,WeatherDisplay:10.37,2013-04-21 07:56:00,
2013-04-21 03:01:00,64.0,57.4,30.01,ESE,119,6.9,6.9,79,0.00,CLR,,0.00,WeatherDisplay:10.37,2013-04-21 08:01:00,
2013-04-21 03:06:00,63.9,57.6,30.00,ESE,114,5.8,5.8,80,0.00,CLR,,0.00,WeatherDisplay:10.37,2013-04-21 08:06:00,
2013-04-21 03:11:00,63.9,57.6,30.01,SE,139,4.6,4.6,80,0.00,CLR,,0.00,WeatherDisplay:10.37,2013-04-21 08:11:00,
2013-04-21 03:16:00,63.9,57.6,30.01,SE,132,5.8,5.8,80,0.00,CLR,,0.00,WeatherDisplay:10.37,2013-04-21 08:16:00,
2013-04-21 03:21:00,63.9,57.6,30.01,ESE,113,4.6,4.6,80,0.00,CLR,,0.00,WeatherDisplay:10.37,2013-04-21 08:21:00,
2013-04-21 03:26:00,63.9,58.0,30.01,SE,134,4.6,4.6,81,0.00,CLR,,0.00,WeatherDisplay:10.37,2013-04-21 08:26:00,
2013-04-21 03:31:00,63.9,58.0,30.01,ESE,109,5.8,5.8,81,0.00,CLR,,0.00,WeatherDisplay:10.37,2013-04-21 08:31:00,
2013-04-21 03:36:00,64.0,58.1,30.01,ESE,109,5.8,5.8,81,0.00,CLR,,0.00,WeatherDisplay:10.37,2013-04-21 08:36:00,
2013-04-21 03:41:00,64.0,57.7,30.01,ESE,108,5.8,5.8,80,0.00,CLR,,0.00,WeatherDisplay:10.37,2013-04-21 08:41:00,
2013-04-21 03:46:00,64.1,57.8,30.01,ESE,105,3.5,3.5,80,0.00,CLR,,0.00,WeatherDisplay:10.37,2013-04-21 08:46:00,
2013-04-21 03:51:00,64.0,58.1,30.02,ESE,115,4.6,4.6,81,0.00,CLR,,0.00,WeatherDisplay:10.37,2013-04-21 08:51:00,
2013-04-21 03:56:00,64.1,58.1,30.02,East,97,5.8,5.8,81,0.00,CLR,,0.00,WeatherDisplay:10.37,2013-04-21 08:56:00,
2013-04-21 04:01:00,64.2,58.2,30.02,ENE,77,6.9,6.9,81,0.00,CLR,,0.00,WeatherDisplay:10.37,2013-04-21 09:01:00,
2013-04-21 04:06:00,64.3,58.0,30.02,ESE,102,9.2,9.2,80,0.00,CLR,,0.00,WeatherDisplay:10.37,2013-04-21 09:06:00,
2013-04-21 04:11:00,64.4,58.1,30.02,ESE,108,9.2,9.2,80,0.00,CLR,,0.00,WeatherDisplay:10.37,2013-04-21 09:11:00,
2013-04-21 04:16:00,64.4,58.1,30.01,SE,126,4.6,4.6,80,0.00,CLR,,0.00,WeatherDisplay:10.37,2013-04-21 09:16:00,
2013-04-21 04:21:00,64.4,58.1,30.02,ESE,102,9.2,9.2,80,0.00,CLR,,0.00,WeatherDisplay:10.37,2013-04-21 09:21:00,
2013-04-21 04:26:00,64.4,57.7,30.01,ESE,103,4.6,4.6,79,0.00,CLR,,0.00,WeatherDisplay:10.37,2013-04-21 09:26:00,
2013-04-21 04:31:00,64.3,57.6,30.01,ESE,119,5.8,5.8,79,0.00,CLR,,0.00,WeatherDisplay:10.37,2013-04-21 09:31:00,
2013-04-21 04:36:00,64.1,57.5,30.01,ESE,116,5.8,5.8,79,0.00,CLR,,0.00,WeatherDisplay:10.37,2013-04-21 09:36:00,
2013-04-21 04:41:00,64.0,57.7,30.00,ESE,106,3.5,3.5,80,0.00,CLR,,0.00,WeatherDisplay:10.37,2013-04-21 09:41:00,
2013-04-21 04:46:00,64.0,57.7,30.00,ESE,105,5.8,5.8,80,0.00,CLR,,0.00,WeatherDisplay:10.37,2013-04-21 09:46:00,
2013-04-21 04:51:00,63.9,57.6,30.00,ESE,102,3.5,3.5,80,0.00,CLR,,0.00,WeatherDisplay:10.37,2013-04-21 09:51:00,
2013-04-21 04:56:00,63.8,57.9,30.00,SE,126,3.2,3.2,81,0.00,CLR,,0.00,WeatherDisplay:10.37,2013-04-21 09:56:00,
2013-04-21 05:01:00,63.8,57.9,30.00,ESE,117,4.6,4.6,81,0.00,CLR,,0.00,WeatherDisplay:10.37,2013-04-21 10:01:00,
2013-04-21 05:06:00,63.8,57.9,30.00,SE,129,2.3,0.0,81,0.00,CLR,,0.00,WeatherDisplay:10.37,2013-04-21 10:06:00,
2013-04-21 05:11:00,63.7,57.8,30.01,SE,130,3.5,3.5,81,0.00,CLR,,0.00,WeatherDisplay:10.37,2013-04-21 10:11:00,
2013-04-21 05:16:00,63.6,58.0,30.01,ESE,113,4.6,4.6,82,0.00,CLR,,0.00,WeatherDisplay:10.37,2013-04-21 10:16:00,
2013-04-21 05:21:00,63.5,57.9,30.01,ESE,113,1.1,1.1,82,0.00,CLR,,0.00,WeatherDisplay:10.37,2013-04-21 10:21:00,
2013-04-21 05:26:00,63.3,57.7,30.02,ESE,115,1.1,1.1,82,0.00,CLR,,0.00,WeatherDisplay:10.37,2013-04-21 10:26:00,
2013-04-21 05:31:00,63.1,57.9,30.01,ESE,116,2.3,2.3,83,0.00,CLR,,0.00,WeatherDisplay:10.37,2013-04-21 10:31:00,
2013-04-21 05:36:00,63.0,57.8,30.01,ESE,117,1.1,1.1,83,0.00,CLR,,0.00,WeatherDisplay:10.37,2013-04-21 10:36:00,
2013-04-21 05:41:00,62.9,58.0,30.01,ESE,120,2.3,2.3,84,0.00,CLR,,0.00,WeatherDisplay:10.37,2013-04-21 10:41:00,
2013-04-21 05:46:00,62.8,58.2,30.01,ESE,118,2.3,2.3,85,0.00,CLR,,0.00,WeatherDisplay:10.37,2013-04-21 10:46:00,
2013-04-21 05:51:00,62.8,58.2,30.01,ESE,118,1.1,1.1,85,0.00,CLR,,0.00,WeatherDisplay:10.37,2013-04-21 10:51:00,
2013-04-21 05:56:00,62.9,58.6,30.01,ESE,118,1.1,1.1,86,0.00,CLR,,0.00,WeatherDisplay:10.37,2013-04-21 10:56:00,
2013-04-21 06:01:00,62.9,58.6,30.01,ESE,118,2.3,2.3,86,0.00,CLR,,0.00,WeatherDisplay:10.37,2013-04-21 11:01:00,
2013-04-21 06:06:00,63.0,59.1,30.01,ESE,118,1.1,1.1,87,0.00,CLR,,0.00,WeatherDisplay:10.37,2013-04-21 11:06:00,
2013-04-21 06:11:00,62.9,59.0,30.02,ESE,118,1.1,0.0,87,0.00,CLR,,0.00,WeatherDisplay:10.37,2013-04-21 11:11:00,
2013-04-21 06:16:00,62.9,59.0,30.02,ESE,118,0.0,0.0,87,0.00,CLR,,0.00,WeatherDisplay:10.37,2013-04-21 11:16:00,
2013-04-21 06:21:00,62.9,59.0,30.02,ESE,118,0.0,0.0,87,0.00,CLR,,0.00,WeatherDisplay:10.37,2013-04-21 11:21:00,
2013-04-21 06:26:00,62.9,59.3,30.03,ESE,118,1.1,0.0,88,0.00,CLR,,0.00,WeatherDisplay:10.37,2013-04-21 11:26:00,
2013-04-21 06:31:00,63.0,59.4,30.03,ESE,118,0.0,0.0,88,0.00,CLR,,0.00,WeatherDisplay:10.37,2013-04-21 11:31:00,
2013-04-21 06:36:00,63.1,59.5,30.03,ESE,118,0.0,0.0,88,0.00,CLR,,0.00,WeatherDisplay:10.37,2013-04-21 11:36:00,
2013-04-21 06:41:00,63.0,59.4,30.03,ESE,118,0.0,0.0,88,0.00,CLR,,0.00,WeatherDisplay:10.37,2013-04-21 11:41:00,
2013-04-21 06:46:00,63.0,59.4,30.03,ESE,118,0.0,0.0,88,0.00,CLR,,0.00,WeatherDisplay:10.37,2013-04-21 11:46:00,
2013-04-21 06:51:00,62.9,59.3,30.03,ESE,118,0.0,0.0,88,0.00,CLR,,0.00,WeatherDisplay:10.37,2013-04-21 11:51:00,
2013-04-21 06:56:00,62.8,59.2,30.03,ESE,118,0.0,0.0,88,0.00,CLR,,0.00,WeatherDisplay:10.37,2013-04-21 11:56:00,
2013-04-21 07:01:00,62.5,58.9,30.03,ESE,118,0.0,0.0,88,0.00,CLR,,0.00,WeatherDisplay:10.37,2013-04-21 12:01:00,
2013-04-21 07:06:00,62.2,58.9,30.03,ESE,118,0.0,0.0,89,0.00,CLR,,0.00,WeatherDisplay:10.37,2013-04-21 12:06:00,
2013-04-21 07:11:00,61.9,58.6,30.04,ESE,118,0.0,0.0,89,0.00,CLR,,0.00,WeatherDisplay:10.37,2013-04-21 12:11:00,
2013-04-21 07:16:00,61.5,58.2,30.04,ESE,118,0.0,0.0,89,0.00,CLR,,0.00,WeatherDisplay:10.37,2013-04-21 12:16:00,
2013-04-21 07:21:00,61.4,58.4,30.05,ESE,118,0.0,0.0,90,0.00,CLR,,0.00,WeatherDisplay:10.37,2013-04-21 12:21:00,
2013-04-21 07:26:00,61.4,58.4,30.05,ESE,118,0.0,0.0,90,0.00,CLR,,0.00,WeatherDisplay:10.37,2013-04-21 12:26:00,
2013-04-21 07:31:00,61.4,58.7,30.05,ESE,118,0.0,0.0,91,0.00,CLR,,0.00,WeatherDisplay:10.37,2013-04-21 12:31:00,
2013-04-21 07:36:00,61.4,58.7,30.05,ESE,118,0.0,0.0,91,0.00,CLR,,0.00,WeatherDisplay:10.37,2013-04-21 12:36:00,
2013-04-21 07:41:00,61.6,58.9,30.05,ESE,118,0.0,0.0,91,0.00,CLR,,0.00,WeatherDisplay:10.37,2013-04-21 12:41:00,
2013-04-21 07:46:00,61.6,58.9,30.05,ESE,118,0.0,0.0,91,0.00,CLR,,0.00,WeatherDisplay:10.37,2013-04-21 12:46:00,
2013-04-21 07:51:00,61.6,58.9,30.05,ESE,118,0.0,0.0,91,0.00,CLR,,0.00,WeatherDisplay:10.37,2013-04-21 12:51:00,
2013-04-21 07:56:00,61.7,59.0,30.05,ESE,118,0.0,0.0,91,0.00,CLR,,0.00,WeatherDisplay:10.37,2013-04-21 12:56:00,
2013-04-21 08:01:00,61.8,59.1,30.06,ESE,118,0.0,0.0,91,0.00,CLR,,0.00,WeatherDisplay:10.37,2013-04-21 13:01:00,
2013-04-21 08:06:00,61.9,59.5,30.06,ESE,118,0.0,0.0,92,0.00,CLR,,0.00,WeatherDisplay:10.37,2013-04-21 13:06:00,
2013-04-21 08:11:00,62.1,59.7,30.06,ESE,118,0.0,0.0,92,0.00,CLR,,0.00,WeatherDisplay:10.37,2013-04-21 13:11:00,
2013-04-21 08:16:00,62.2,59.8,30.06,ESE,118,0.0,0.0,92,0.00,CLR,,0.00,WeatherDisplay:10.37,2013-04-21 13:16:00,
2013-04-21 08:21:00,62.5,60.1,30.06,ESE,118,0.0,0.0,92,0.00,CLR,,0.00,WeatherDisplay:10.37,2013-04-21 13:21:00,
2013-04-21 08:26:00,62.9,60.5,30.06,ESE,118,0.0,0.0,92,0.00,CLR,,0.00,WeatherDisplay:10.37,2013-04-21 13:26:00,
2013-04-21 08:31:00,63.4,61.0,30.07,ESE,118,0.0,0.0,92,0.00,CLR,,0.00,WeatherDisplay:10.37,2013-04-21 13:31:00,
2013-04-21 08:36:00,64.0,61.6,30.07,ESE,118,1.1,0.0,92,0.00,CLR,,0.00,WeatherDisplay:10.37,2013-04-21 13:36:00,
2013-04-21 08:41:00,64.5,61.5,30.07,ESE,118,1.1,0.0,90,0.00,CLR,,0.00,WeatherDisplay:10.37,2013-04-21 13:41:00,
2013-04-21 08:46:00,65.2,62.2,30.07,ESE,118,0.0,0.0,90,0.00,CLR,,0.00,WeatherDisplay:10.37,2013-04-21 13:46:00,
2013-04-21 08:51:00,66.0,62.7,30.07,ESE,118,1.1,1.1,89,0.00,CLR,,0.00,WeatherDisplay:10.37,2013-04-21 13:51:00,
2013-04-21 08:56:00,66.7,62.7,30.07,ESE,118,1.1,1.1,87,0.00,CLR,,0.00,WeatherDisplay:10.37,2013-04-21 13:56:00,
2013-04-21 09:01:00,67.4,62.7,30.07,ESE,118,1.1,1.1,85,0.00,CLR,,0.00,WeatherDisplay:10.37,2013-04-21 14:01:00,
2013-04-21 09:06:00,68.1,62.4,30.08,South,170,2.3,2.3,82,0.00,CLR,,0.00,WeatherDisplay:10.37,2013-04-21 14:06:00,
2013-04-21 09:11:00,68.3,62.2,30.08,South,170,0.0,0.2,81,0.00,CLR,,0.00,WeatherDisplay:10.37,2013-04-21 14:11:00,
2013-04-21 09:16:00,68.5,62.8,30.08,South,170,1.1,0.0,82,0.00,CLR,,0.00,WeatherDisplay:10.37,2013-04-21 14:16:00,
2013-04-21 09:21:00,69.0,63.3,30.08,South,170,2.1,2.1,82,0.00,CLR,,0.00,WeatherDisplay:10.37,2013-04-21 14:21:00,
2013-04-21 09:26:00,69.6,62.8,30.08,South,170,3.5,3.5,79,0.00,CLR,,0.00,WeatherDisplay:10.37,2013-04-21 14:26:00,
2013-04-21 09:31:00,69.7,62.5,30.08,SE,127,3.5,3.5,78,0.00,CLR,,0.00,WeatherDisplay:10.37,2013-04-21 14:31:00,
2013-04-21 09:36:00,69.9,62.4,30.08,South,184,5.8,5.8,77,0.00,CLR,,0.00,WeatherDisplay:10.37,2013-04-21 14:36:00,
2013-04-21 09:41:00,70.2,62.3,30.08,SSW,194,3.5,3.5,76,0.00,CLR,,0.00,WeatherDisplay:10.37,2013-04-21 14:41:00,
2013-04-21 09:46:00,70.8,62.5,30.08,ESE,109,4.6,4.6,75,0.00,CLR,,0.00,WeatherDisplay:10.37,2013-04-21 14:46:00,
2013-04-21 09:51:00,71.2,62.5,30.08,South,186,3.5,3.5,74,0.00,CLR,,0.00,WeatherDisplay:10.37,2013-04-21 14:51:00,
2013-04-21 09:56:00,71.7,63.0,30.08,NE,54,3.5,3.5,74,0.00,CLR,,0.00,WeatherDisplay:10.37,2013-04-21 14:56:00,
2013-04-21 10:01:00,72.1,63.0,30.08,ESE,123,4.6,4.6,73,0.00,CLR,,0.00,WeatherDisplay:10.37,2013-04-21 15:01:00,
2013-04-21 10:06:00,72.1,62.6,30.09,SE,146,3.5,3.5,72,0.00,CLR,,0.00,WeatherDisplay:10.37,2013-04-21 15:06:00,
2013-04-21 10:11:00,72.3,63.2,30.09,SSW,194,5.8,5.8,73,0.00,CLR,,0.00,WeatherDisplay:10.37,2013-04-21 15:11:00,
2013-04-21 10:16:00,72.8,62.8,30.09,East,94,4.6,4.6,71,0.00,CLR,,0.00,WeatherDisplay:10.37,2013-04-21 15:16:00,
2013-04-21 10:21:00,73.1,63.1,30.09,East,86,6.9,6.9,71,0.00,CLR,,0.00,WeatherDisplay:10.37,2013-04-21 15:21:00,
2013-04-21 10:26:00,72.7,62.8,30.09,ENE,57,2.3,2.3,71,0.00,CLR,,0.00,WeatherDisplay:10.37,2013-04-21 15:26:00,
2013-04-21 10:31:00,72.9,62.5,30.09,ESE,106,5.8,5.8,70,0.00,CLR,,0.00,WeatherDisplay:10.37,2013-04-21 15:31:00,
2013-04-21 10:36:00,73.2,62.4,30.09,ESE,116,5.8,5.8,69,0.00,CLR,,0.00,WeatherDisplay:10.37,2013-04-21 15:36:00,
2013-04-21 10:41:00,73.4,63.0,30.09,East,96,5.8,5.8,70,0.00,CLR,,0.00,WeatherDisplay:10.37,2013-04-21 15:41:00,
2013-04-21 10:46:00,73.6,62.8,30.09,SE,124,4.6,4.6,69,0.00,CLR,,0.00,WeatherDisplay:10.37,2013-04-21 15:46:00,
2013-04-21 10:51:00,73.6,63.2,30.09,South,175,2.3,2.3,70,0.00,CLR,,0.00,WeatherDisplay:10.37,2013-04-21 15:51:00,
2013-04-21 10:56:00,73.1,62.3,30.09,SE,132,6.9,6.9,69,0.00,CLR,,0.00,WeatherDisplay:10.37,2013-04-21 15:56:00,
2013-04-21 11:01:00,73.1,62.3,30.09,SSE,163,5.8,5.8,69,0.00,CLR,,0.00,WeatherDisplay:10.37,2013-04-21 16:01:00,
2013-04-21 11:06:00,72.9,62.1,30.09,East,91,9.2,9.2,69,0.00,CLR,,0.00,WeatherDisplay:10.37,2013-04-21 16:06:00,
2013-04-21 11:11:00,72.9,62.5,30.09,ESE,115,9.2,9.2,70,0.00,CLR,,0.00,WeatherDisplay:10.37,2013-04-21 16:11:00,
2013-04-21 11:16:00,73.2,63.2,30.08,East,97,2.3,2.8,71,0.00,CLR,,0.00,WeatherDisplay:10.37,2013-04-21 16:16:00,
2013-04-21 11:21:00,73.4,62.6,30.09,East,84,4.2,4.2,69,0.00,CLR,,0.00,WeatherDisplay:10.37,2013-04-21 16:21:00,
2013-04-21 11:26:00,73.8,62.6,30.09,SE,140,3.5,3.5,68,0.00,CLR,,0.00,WeatherDisplay:10.37,2013-04-21 16:26:00,
2013-04-21 11:31:00,73.8,63.0,30.08,ENE,72,8.1,8.1,69,0.00,CLR,,0.00,WeatherDisplay:10.37,2013-04-21 16:31:00,
2013-04-21 11:36:00,73.8,62.6,30.08,ESE,110,6.9,6.9,68,0.00,CLR,,0.00,WeatherDisplay:10.37,2013-04-21 16:36:00,
2013-04-21 11:41:00,73.7,62.9,30.08,ENE,77,9.2,9.2,69,0.00,CLR,,0.00,WeatherDisplay:10.37,2013-04-21 16:41:00,
2013-04-21 11:46:00,73.9,62.7,30.08,ESE,105,5.8,5.8,68,0.00,CLR,,0.00,WeatherDisplay:10.37,2013-04-21 16:46:00,
2013-04-21 11:51:00,74.3,63.1,30.08,South,185,3.5,3.5,68,0.00,CLR,,0.00,WeatherDisplay:10.37,2013-04-21 16:51:00,
2013-04-21 11:56:00,74.4,62.3,30.08,SE,143,5.8,5.8,66,0.00,CLR,,0.00,WeatherDisplay:10.37,2013-04-21 16:56:00,
2013-04-21 12:01:00,74.7,63.4,30.08,SE,127,5.8,5.8,68,0.00,CLR,,0.00,WeatherDisplay:10.37,2013-04-21 17:01:00,
2013-04-21 12:06:00,74.7,63.4,30.08,ESE,106,12.6,12.6,68,0.00,CLR,,0.00,WeatherDisplay:10.37,2013-04-21 17:06:00,
2013-04-21 12:11:00,74.6,62.9,30.08,ESE,121,4.6,4.6,67,0.00,CLR,,0.00,WeatherDisplay:10.37,2013-04-21 17:11:00,
2013-04-21 12:16:00,74.2,62.5,30.08,ESE,117,6.9,6.9,67,0.00,CLR,,0.00,WeatherDisplay:10.37,2013-04-21 17:16:00,
2013-04-21 12:21:00,73.9,63.1,30.08,ENE,61,6.9,6.9,69,0.00,CLR,,0.00,WeatherDisplay:10.37,2013-04-21 17:21:00,
2013-04-21 12:26:00,73.9,63.1,30.08,East,79,9.2,9.2,69,0.00,CLR,,0.00,WeatherDisplay:10.37,2013-04-21 17:26:00,
2013-04-21 12:31:00,73.8,63.0,30.08,NE,55,5.8,5.8,69,0.00,CLR,,0.00,WeatherDisplay:10.37,2013-04-21 17:31:00,
2013-04-21 12:36:00,73.6,62.8,30.08,ENE,72,5.8,5.8,69,0.00,CLR,,0.00,WeatherDisplay:10.37,2013-04-21 17:36:00,
2013-04-21 12:41:00,73.3,62.9,30.08,South,174,5.8,5.8,70,0.00,CLR,,0.00,WeatherDisplay:10.37,2013-04-21 17:41:00,
2013-04-21 12:46:00,73.9,63.9,30.08,SE,124,6.9,6.9,71,0.00,CLR,,0.00,WeatherDisplay:10.37,2013-04-21 17:46:00,
2013-04-21 12:51:00,74.8,63.1,30.07,SE,124,5.8,5.8,67,0.00,CLR,,0.00,WeatherDisplay:10.37,2013-04-21 17:51:00,
2013-04-21 12:56:00,74.9,63.2,30.07,East,92,3.5,3.5,67,0.00,CLR,,0.00,WeatherDisplay:10.37,2013-04-21 17:56:00,
2013-04-21 13:01:00,75.0,63.7,30.07,SE,131,3.5,3.5,68,0.00,CLR,,0.00,WeatherDisplay:10.37,2013-04-21 18:01:00,
2013-04-21 13:06:00,74.6,62.9,30.06,East,98,11.5,11.5,67,0.00,CLR,,0.00,WeatherDisplay:10.37,2013-04-21 18:06:00,
2013-04-21 13:11:00,74.3,63.5,30.06,East,91,5.8,5.8,69,0.00,CLR,,0.00,WeatherDisplay:10.37,2013-04-21 18:11:00,
2013-04-21 13:16:00,74.2,63.0,30.06,SE,127,10.4,10.4,68,0.00,CLR,,0.00,WeatherDisplay:10.37,2013-04-21 18:16:00,
2013-04-21 13:21:00,74.2,63.4,30.06,ENE,60,6.9,6.9,69,0.00,CLR,,0.00,WeatherDisplay:10.37,2013-04-21 18:21:00,
2013-04-21 13:26:00,74.7,63.0,30.06,ENE,73,6.9,6.9,67,0.00,CLR,,0.00,WeatherDisplay:10.37,2013-04-21 18:26:00,
2013-04-21 13:31:00,74.8,62.7,30.06,ESE,105,10.4,10.4,66,0.00,CLR,,0.00,WeatherDisplay:10.37,2013-04-21 18:31:00,
2013-04-21 13:36:00,74.7,62.6,30.05,SE,124,10.4,10.4,66,0.00,CLR,,0.00,WeatherDisplay:10.37,2013-04-21 18:36:00,
2013-04-21 13:41:00,74.9,62.8,30.05,SE,127,5.8,5.8,66,0.00,CLR,,0.00,WeatherDisplay:10.37,2013-04-21 18:41:00,
2013-04-21 13:46:00,74.9,62.8,30.05,ENE,63,9.2,9.2,66,0.00,CLR,,0.00,WeatherDisplay:10.37,2013-04-21 18:46:00,
2013-04-21 13:51:00,74.4,62.3,30.05,SE,124,10.4,10.4,66,0.00,CLR,,0.00,WeatherDisplay:10.37,2013-04-21 18:51:00,
2013-04-21 13:56:00,74.0,61.9,30.05,SE,129,11.5,11.5,66,0.00,CLR,,0.00,WeatherDisplay:10.37,2013-04-21 18:56:00,
2013-04-21 14:01:00,74.0,62.3,30.05,East,101,5.8,5.8,67,0.00,CLR,,0.00,WeatherDisplay:10.37,2013-04-21 19:01:00,
2013-04-21 14:06:00,74.5,62.8,30.05,SE,128,5.8,5.8,67,0.00,CLR,,0.00,WeatherDisplay:10.37,2013-04-21 19:06:00,
2013-04-21 14:11:00,75.1,62.1,30.05,ESE,105,5.8,5.8,64,0.00,CLR,,0.00,WeatherDisplay:10.37,2013-04-21 19:11:00,
2013-04-21 14:16:00,74.8,62.7,30.05,ENE,60,5.8,5.8,66,0.00,CLR,,0.00,WeatherDisplay:10.37,2013-04-21 19:16:00,
2013-04-21 14:21:00,74.9,62.8,30.04,ESE,112,6.9,8.0,66,0.00,CLR,,0.00,WeatherDisplay:10.37,2013-04-21 19:21:00,
2013-04-21 14:26:00,74.8,62.2,30.04,ENE,68,6.9,6.9,65,0.00,CLR,,0.00,WeatherDisplay:10.37,2013-04-21 19:26:00,
2013-04-21 14:31:00,74.7,62.6,30.04,ESE,112,12.7,12.7,66,0.00,CLR,,0.00,WeatherDisplay:10.37,2013-04-21 19:31:00,
2013-04-21 14:36:00,74.8,62.2,30.04,ESE,113,6.9,6.9,65,0.00,CLR,,0.00,WeatherDisplay:10.37,2013-04-21 19:36:00,
2013-04-21 14:41:00,74.8,62.7,30.03,ESE,111,6.9,6.9,66,0.00,CLR,,0.00,WeatherDisplay:10.37,2013-04-21 19:41:00,
2013-04-21 14:46:00,74.7,62.6,30.03,East,83,6.9,6.9,66,0.00,CLR,,0.00,WeatherDisplay:10.37,2013-04-21 19:46:00,
2013-04-21 14:51:00,74.5,63.7,30.03,NNE,31,6.9,6.9,69,0.00,CLR,,0.00,WeatherDisplay:10.37,2013-04-21 19:51:00,
2013-04-21 14:56:00,74.7,63.9,30.02,East,95,11.5,11.5,69,0.00,CLR,,0.00,WeatherDisplay:10.37,2013-04-21 19:56:00,
2013-04-21 15:01:00,74.2,62.5,30.03,East,100,5.8,7.4,67,0.00,CLR,,0.00,WeatherDisplay:10.37,2013-04-21 20:01:00,
2013-04-21 15:06:00,74.1,63.3,30.03,ESE,105,6.9,6.9,69,0.00,CLR,,0.00,WeatherDisplay:10.37,2013-04-21 20:06:00,
2013-04-21 15:11:00,74.2,63.8,30.02,ESE,108,10.4,10.4,70,0.00,CLR,,0.00,WeatherDisplay:10.37,2013-04-21 20:11:00,
2013-04-21 15:16:00,74.6,63.8,30.02,SE,133,12.7,12.7,69,0.00,CLR,,0.00,WeatherDisplay:10.37,2013-04-21 20:16:00,
2013-04-21 15:21:00,74.9,64.5,30.02,East,98,10.4,10.4,70,0.00,CLR,,0.00,WeatherDisplay:10.37,2013-04-21 20:21:00,
2013-04-21 15:26:00,74.9,64.0,30.02,East,96,6.9,6.9,69,0.00,CLR,,0.00,WeatherDisplay:10.37,2013-04-21 20:26:00,
2013-04-21 15:31:00,74.7,64.3,30.02,NE,34,13.8,13.8,70,0.00,CLR,,0.00,WeatherDisplay:10.37,2013-04-21 20:31:00,
2013-04-21 15:36:00,74.6,64.6,30.02,ESE,105,5.8,5.9,71,0.00,CLR,,0.00,WeatherDisplay:10.37,2013-04-21 20:36:00,
2013-04-21 15:41:00,74.5,64.5,30.01,ENE,60,10.4,10.4,71,0.00,CLR,,0.00,WeatherDisplay:10.37,2013-04-21 20:41:00,
2013-04-21 15:46:00,74.3,64.3,30.01,ENE,73,10.4,10.4,71,0.00,CLR,,0.00,WeatherDisplay:10.37,2013-04-21 20:46:00,
2013-04-21 15:51:00,73.9,64.3,30.01,ESE,102,11.5,11.5,72,0.00,CLR,,0.00,WeatherDisplay:10.37,2013-04-21 20:51:00,
2013-04-21 15:56:00,74.3,64.7,30.01,ESE,105,10.4,10.4,72,0.00,CLR,,0.00,WeatherDisplay:10.37,2013-04-21 20:56:00,
2013-04-21 16:01:00,74.5,64.9,30.00,East,84,10.4,10.4,72,0.00,CLR,,0.00,WeatherDisplay:10.37,2013-04-21 21:01:00,
2013-04-21 16:06:00,74.0,64.4,30.00,East,96,10.4,10.4,72,0.00,CLR,,0.00,WeatherDisplay:10.37,2013-04-21 21:06:00,
2013-04-21 16:11:00,73.3,63.7,30.00,ESE,110,12.7,12.7,72,0.00,CLR,,0.00,WeatherDisplay:10.37,2013-04-21 21:11:00,
2013-04-21 16:16:00,73.4,63.8,30.00,East,87,9.2,9.2,72,0.00,CLR,,0.00,WeatherDisplay:10.37,2013-04-21 21:16:00,
2013-04-21 16:21:00,73.8,63.8,30.00,ENE,68,5.8,6.7,71,0.00,CLR,,0.00,WeatherDisplay:10.37,2013-04-21 21:21:00,
2013-04-21 16:26:00,73.7,64.1,30.00,NE,51,16.1,16.1,72,0.00,CLR,,0.00,WeatherDisplay:10.37,2013-04-21 21:26:00,
2013-04-21 16:31:00,73.5,64.7,30.00,ESE,106,6.9,6.9,74,0.00,CLR,,0.00,WeatherDisplay:10.37,2013-04-21 21:31:00,
2013-04-21 16:36:00,73.3,64.5,30.00,SSE,167,12.7,12.7,74,0.00,CLR,,0.00,WeatherDisplay:10.37,2013-04-21 21:36:00,
2013-04-21 16:41:00,73.2,64.4,30.00,ENE,65,12.7,12.7,74,0.00,CLR,,0.00,WeatherDisplay:10.37,2013-04-21 21:41:00,
2013-04-21 16:46:00,72.8,64.4,30.00,East,100,10.4,10.4,75,0.00,CLR,,0.00,WeatherDisplay:10.37,2013-04-21 21:46:00,
2013-04-21 16:51:00,72.4,64.4,30.00,East,95,10.4,10.4,76,0.00,CLR,,0.00,WeatherDisplay:10.37,2013-04-21 21:51:00,
2013-04-21 16:56:00,72.4,64.8,30.00,NE,51,10.4,10.4,77,0.00,CLR,,0.00,WeatherDisplay:10.37,2013-04-21 21:56:00,
2013-04-21 17:01:00,72.6,64.2,30.00,ENE,69,10.4,10.4,75,0.00,CLR,,0.00,WeatherDisplay:10.37,2013-04-21 22:01:00,
2013-04-21 17:06:00,72.5,64.1,30.00,ENE,64,11.5,11.5,75,0.00,CLR,,0.00,WeatherDisplay:10.37,2013-04-21 22:06:00,
2013-04-21 17:11:00,72.3,63.9,30.00,ESE,111,13.8,13.8,75,0.00,CLR,,0.00,WeatherDisplay:10.37,2013-04-21 22:11:00,
2013-04-21 17:16:00,72.3,63.9,30.00,East,90,10.4,10.4,75,0.00,CLR,,0.00,WeatherDisplay:10.37,2013-04-21 22:16:00,
2013-04-21 17:21:00,72.4,64.0,30.00,ENE,65,11.5,11.5,75,0.00,CLR,,0.00,WeatherDisplay:10.37,2013-04-21 22:21:00,
2013-04-21 17:26:00,72.3,64.3,30.00,ESE,121,11.5,11.5,76,0.00,CLR,,0.00,WeatherDisplay:10.37,2013-04-21 22:26:00,
2013-04-21 17:31:00,72.1,64.5,30.00,ESE,108,15.0,15.0,77,0.00,CLR,,0.00,WeatherDisplay:10.37,2013-04-21 22:31:00,
2013-04-21 17:36:00,71.9,64.7,30.00,ENE,65,13.8,13.8,78,0.00,CLR,,0.00,WeatherDisplay:10.37,2013-04-21 22:36:00,
2013-04-21 17:41:00,71.8,64.9,30.00,ENE,73,10.4,10.4,79,0.00,CLR,,0.00,WeatherDisplay:10.37,2013-04-21 22:41:00,
2013-04-21 17:46:00,71.9,65.0,30.00,East,89,11.6,11.6,79,0.00,CLR,,0.00,WeatherDisplay:10.37,2013-04-21 22:46:00,
2013-04-21 17:51:00,71.5,64.6,30.00,East,87,10.4,10.4,79,0.00,CLR,,0.00,WeatherDisplay:10.37,2013-04-21 22:51:00,
2013-04-21 17:56:00,71.7,65.2,30.00,ESE,102,9.2,9.2,80,0.00,CLR,,0.00,WeatherDisplay:10.37,2013-04-21 22:56:00,
2013-04-21 18:01:00,71.6,64.7,30.00,ENE,70,12.7,12.7,79,0.00,CLR,,0.00,WeatherDisplay:10.37,2013-04-21 23:01:00,
2013-04-21 18:06:00,71.5,64.6,30.00,East,89,12.7,12.7,79,0.00,CLR,,0.00,WeatherDisplay:10.37,2013-04-21 23:06:00,
2013-04-21 18:11:00,71.0,64.2,30.00,ENE,75,13.8,13.8,79,0.00,CLR,,0.00,WeatherDisplay:10.37,2013-04-21 23:11:00,
2013-04-21 18:16:00,71.2,64.7,30.00,ESE,114,16.1,16.1,80,0.00,CLR,,0.00,WeatherDisplay:10.37,2013-04-21 23:16:00,
2013-04-21 18:21:00,71.0,64.5,30.00,NE,53,15.0,15.0,80,0.00,CLR,,0.00,WeatherDisplay:10.37,2013-04-21 23:21:00,
2013-04-21 18:26:00,70.7,64.6,30.00,SE,126,12.7,12.7,81,0.00,CLR,,0.00,WeatherDisplay:10.37,2013-04-21 23:26:00,
2013-04-21 18:31:00,70.8,65.0,30.00,NE,49,16.1,16.1,82,0.00,CLR,,0.00,WeatherDisplay:10.37,2013-04-21 23:31:00,
2013-04-21 18:36:00,70.6,65.2,30.01,ENE,73,16.1,16.1,83,0.00,CLR,,0.00,WeatherDisplay:10.37,2013-04-21 23:36:00,
2013-04-21 18:41:00,70.4,65.0,30.01,East,91,12.7,12.7,83,0.00,CLR,,0.00,WeatherDisplay:10.37,2013-04-21 23:41:00,
2013-04-21 18:46:00,70.1,65.0,30.01,NE,44,6.9,6.9,84,0.00,CLR,,0.00,WeatherDisplay:10.37,2013-04-21 23:46:00,
2013-04-21 18:51:00,69.9,64.8,30.01,East,84,13.8,13.8,84,0.00,CLR,,0.00,WeatherDisplay:10.37,2013-04-21 23:51:00,
2013-04-21 18:56:00,69.8,64.7,30.01,ESE,120,12.7,12.7,84,0.00,CLR,,0.00,WeatherDisplay:10.37,2013-04-21 23:56:00,
2013-04-21 19:01:00,69.7,64.6,30.01,ESE,103,12.7,12.7,84,0.00,CLR,,0.00,WeatherDisplay:10.37,2013-04-22 00:01:00,
2013-04-21 19:06:00,69.5,64.8,30.01,ESE,121,10.4,10.4,85,0.00,CLR,,0.00,WeatherDisplay:10.37,2013-04-22 00:06:00,
2013-04-21 19:11:00,69.4,65.0,30.01,East,101,12.6,12.6,86,0.00,CLR,,0.00,WeatherDisplay:10.37,2013-04-22 00:11:00,
2013-04-21 19:16:00,69.0,64.6,30.01,East,95,11.5,11.5,86,0.00,CLR,,0.00,WeatherDisplay:10.37,2013-04-22 00:16:00,
2013-04-21 19:21:00,68.7,64.7,30.01,East,90,12.7,12.7,87,0.00,CLR,,0.00,WeatherDisplay:10.37,2013-04-22 00:21:00,
2013-04-21 19:26:00,68.6,64.9,30.01,ESE,117,10.4,10.4,88,0.00,CLR,,0.00,WeatherDisplay:10.37,2013-04-22 00:26:00,
2013-04-21 19:31:00,68.3,64.6,30.02,NE,44,9.4,9.4,88,0.00,CLR,,0.00,WeatherDisplay:10.37,2013-04-22 00:31:00,
2013-04-21 19:36:00,68.2,64.8,30.02,East,94,9.2,9.2,89,0.00,CLR,,0.00,WeatherDisplay:10.37,2013-04-22 00:36:00,
2013-04-21 19:41:00,68.0,64.6,30.02,East,98,13.8,13.8,89,0.00,CLR,,0.00,WeatherDisplay:10.37,2013-04-22 00:41:00,
2013-04-21 19:46:00,67.9,64.9,30.02,SE,124,13.8,13.8,90,0.00,CLR,,0.00,WeatherDisplay:10.37,2013-04-22 00:46:00,
2013-04-21 19:51:00,67.8,64.8,30.02,East,95,10.4,10.4,90,0.00,CLR,,0.00,WeatherDisplay:10.37,2013-04-22 00:51:00,
2013-04-21 19:56:00,67.6,64.9,30.02,East,97,11.5,11.5,91,0.00,CLR,,0.00,WeatherDisplay:10.37,2013-04-22 00:56:00,
2013-04-21 20:01:00,67.5,64.5,30.02,ESE,113,13.8,13.8,90,0.00,CLR,,0.00,WeatherDisplay:10.37,2013-04-22 01:01:00,
2013-04-21 20:06:00,67.5,64.8,30.02,East,101,9.2,9.2,91,0.00,CLR,,0.00,WeatherDisplay:10.37,2013-04-22 01:06:00,
2013-04-21 20:11:00,67.4,64.7,30.02,ENE,64,12.7,12.7,91,0.00,CLR,,0.00,WeatherDisplay:10.37,2013-04-22 01:11:00,
2013-04-21 20:16:00,67.3,64.6,30.02,East,83,11.5,11.5,91,0.00,CLR,,0.00,WeatherDisplay:10.37,2013-04-22 01:16:00,
2013-04-21 20:21:00,67.3,64.9,30.02,ENE,62,10.4,10.4,92,0.00,CLR,,0.00,WeatherDisplay:10.37,2013-04-22 01:21:00,
2013-04-21 20:26:00,67.2,64.8,30.02,ENE,63,12.7,12.7,92,0.00,CLR,,0.00,WeatherDisplay:10.37,2013-04-22 01:26:00,
2013-04-21 20:31:00,67.2,64.8,30.03,ESE,112,6.3,6.3,92,0.00,CLR,,0.00,WeatherDisplay:10.37,2013-04-22 01:31:00,
2013-04-21 20:36:00,67.1,64.7,30.03,East,98,12.7,12.7,92,0.00,CLR,,0.00,WeatherDisplay:10.37,2013-04-22 01:36:00,
2013-04-21 20:41:00,67.1,64.7,30.03,ENE,65,9.2,9.2,92,0.00,CLR,,0.00,WeatherDisplay:10.37,2013-04-22 01:41:00,
2013-04-21 20:46:00,67.1,64.7,30.03,ENE,71,5.8,5.8,92,0.00,CLR,,0.00,WeatherDisplay:10.37,2013-04-22 01:46:00,
2013-04-21 20:51:00,67.0,64.6,30.03,ESE,115,6.9,6.9,92,0.00,CLR,,0.00,WeatherDisplay:10.37,2013-04-22 01:51:00,
2013-04-21 20:56:00,67.0,64.6,30.03,East,91,10.4,10.4,92,0.00,CLR,,0.00,WeatherDisplay:10.37,2013-04-22 01:56:00,
2013-04-21 21:01:00,67.0,64.6,30.03,ESE,115,10.4,10.4,92,0.00,CLR,,0.00,WeatherDisplay:10.37,2013-04-22 02:01:00,
2013-04-21 21:06:00,67.0,64.6,30.03,East,100,10.4,10.4,92,0.00,CLR,,0.00,WeatherDisplay:10.37,2013-04-22 02:06:00,
2013-04-21 21:11:00,66.9,64.5,30.03,SE,130,7.4,7.5,92,0.00,CLR,,0.00,WeatherDisplay:10.37,2013-04-22 02:11:00,
2013-04-21 21:16:00,66.8,64.4,30.03,East,95,12.7,12.7,92,0.00,CLR,,0.00,WeatherDisplay:10.37,2013-04-22 02:16:00,
2013-04-21 21:21:00,66.9,64.5,30.03,ESE,117,13.8,13.8,92,0.00,CLR,,0.00,WeatherDisplay:10.37,2013-04-22 02:21:00,
2013-04-21 21:26:00,66.8,64.4,30.04,ESE,108,7.4,7.4,92,0.00,CLR,,0.00,WeatherDisplay:10.37,2013-04-22 02:26:00,
2013-04-21 21:31:00,66.7,64.3,30.04,East,81,15.0,15.0,92,0.00,CLR,,0.00,WeatherDisplay:10.37,2013-04-22 02:31:00,
2013-04-21 21:36:00,66.8,64.7,30.04,SE,134,11.5,11.5,93,0.00,CLR,,0.00,WeatherDisplay:10.37,2013-04-22 02:36:00,
2013-04-21 21:41:00,66.7,64.6,30.04,East,99,9.2,9.2,93,0.00,CLR,,0.00,WeatherDisplay:10.37,2013-04-22 02:41:00,
2013-04-21 21:46:00,66.7,64.6,30.04,ESE,109,6.9,6.9,93,0.00,CLR,,0.00,WeatherDisplay:10.37,2013-04-22 02:46:00,
2013-04-21 21:51:00,66.6,64.5,30.05,SE,135,12.7,12.7,93,0.00,CLR,,0.00,WeatherDisplay:10.37,2013-04-22 02:51:00,
2013-04-21 21:56:00,66.6,64.5,30.05,NE,51,10.4,10.4,93,0.00,CLR,,0.00,WeatherDisplay:10.37,2013-04-22 02:56:00,
2013-04-21 22:01:00,66.7,64.6,30.05,ESE,104,9.2,9.2,93,0.00,CLR,,0.00,WeatherDisplay:10.37,2013-04-22 03:01:00,
2013-04-21 22:06:00,66.6,64.5,30.05,ESE,117,6.9,6.9,93,0.00,CLR,,0.00,WeatherDisplay:10.37,2013-04-22 03:06:00,
2013-04-21 22:11:00,66.6,64.5,30.05,ESE,114,11.5,11.5,93,0.00,CLR,,0.00,WeatherDisplay:10.37,2013-04-22 03:11:00,
2013-04-21 22:16:00,66.6,64.5,30.05,ESE,117,8.1,8.1,93,0.00,CLR,,0.00,WeatherDisplay:10.37,2013-04-22 03:16:00,
2013-04-21 22:21:00,66.6,64.5,30.06,ESE,115,5.8,5.8,93,0.00,CLR,,0.00,WeatherDisplay:10.37,2013-04-22 03:21:00,
2013-04-21 22:26:00,66.6,64.8,30.06,ESE,115,9.2,9.2,94,0.00,CLR,,0.00,WeatherDisplay:10.37,2013-04-22 03:26:00,
2013-04-21 22:31:00,66.5,64.7,30.06,ESE,117,12.7,12.7,94,0.00,CLR,,0.00,WeatherDisplay:10.37,2013-04-22 03:31:00,
2013-04-21 22:36:00,66.5,64.7,30.06,ESE,114,9.2,9.2,94,0.00,CLR,,0.00,WeatherDisplay:10.37,2013-04-22 03:36:00,
2013-04-21 22:41:00,66.5,64.7,30.05,ENE,67,10.4,10.4,94,0.00,CLR,,0.00,WeatherDisplay:10.37,2013-04-22 03:41:00,
2013-04-21 22:46:00,66.5,64.7,30.06,East,91,12.7,12.7,94,0.00,CLR,,0.00,WeatherDisplay:10.37,2013-04-22 03:46:00,
2013-04-21 22:51:00,66.5,64.7,30.05,ENE,67,6.9,6.9,94,0.00,CLR,,0.00,WeatherDisplay:10.37,2013-04-22 03:51:00,
2013-04-21 22:56:00,66.4,64.6,30.06,ENE,73,6.9,6.9,94,0.00,CLR,,0.00,WeatherDisplay:10.37,2013-04-22 03:56:00,
2013-04-21 23:01:00,66.4,64.6,30.06,East,96,9.2,9.2,94,0.00,CLR,,0.00,WeatherDisplay:10.37,2013-04-22 04:01:00,
2013-04-21 23:06:00,66.3,64.5,30.06,East,97,10.4,10.4,94,0.00,CLR,,0.00,WeatherDisplay:10.37,2013-04-22 04:06:00,
2013-04-21 23:11:00,66.3,64.5,30.06,ENE,77,8.1,8.1,94,0.00,CLR,,0.00,WeatherDisplay:10.37,2013-04-22 04:11:00,
2013-04-21 23:16:00,66.4,64.6,30.06,East,96,9.2,9.2,94,0.00,CLR,,0.00,WeatherDisplay:10.37,2013-04-22 04:16:00,
2013-04-21 23:21:00,66.4,64.3,30.06,ESE,104,16.1,16.1,93,0.00,CLR,,0.00,WeatherDisplay:10.37,2013-04-22 04:21:00,
2013-04-21 23:26:00,66.4,64.3,30.06,ENE,75,5.8,5.8,93,0.00,CLR,,0.00,WeatherDisplay:10.37,2013-04-22 04:26:00,
2013-04-21 23:31:00,66.4,64.3,30.06,East,99,9.2,9.2,93,0.00,CLR,,0.00,WeatherDisplay:10.37,2013-04-22 04:31:00,
2013-04-21 23:36:00,66.4,64.3,30.06,East,95,10.5,10.5,93,0.00,CLR,,0.00,WeatherDisplay:10.37,2013-04-22 04:36:00,
2013-04-21 23:41:00,66.4,64.3,30.06,East,84,5.8,5.8,93,0.00,CLR,,0.00,WeatherDisplay:10.37,2013-04-22 04:41:00,
2013-04-21 23:46:00,66.4,64.3,30.06,ESE,115,10.4,10.4,93,0.00,CLR,,0.00,WeatherDisplay:10.37,2013-04-22 04:46:00,
2013-04-21 23:51:00,66.5,64.4,30.06,East,86,9.2,9.2,93,0.00,CLR,,0.00,WeatherDisplay:10.37,2013-04-22 04:51:00,
2013-04-21 23:56:00,66.5,64.7,30.06,ENE,72,9.2,9.2,94,0.00,CLR,,0.00,WeatherDisplay:10.37,2013-04-22 04:56:00,